sensor_id;sensor_type;location;lat;lon;timestamp;temperature;humidity
48575;DHT22;34352;51.084;3.712;2022-10-16T00:00:39;14.50;35.70
48575;DHT22;34352;51.084;3.712;2022-10-16T00:03:05;14.40;38.50
48575;DHT22;34352;51.084;3.712;2022-10-16T00:05:37;14.30;40.40
48575;DHT22;34352;51.084;3.712;2022-10-16T00:08:02;14.20;43.10
48575;DHT22;34352;51.084;3.712;2022-10-16T00:10:29;14.10;43.40
48575;DHT22;34352;51.084;3.712;2022-10-16T00:12:56;14.10;46.70
48575;DHT22;34352;51.084;3.712;2022-10-16T00:15:23;14.10;46.70
48575;DHT22;34352;51.084;3.712;2022-10-16T00:17:51;14.00;48.30
48575;DHT22;34352;51.084;3.712;2022-10-16T00:20:25;14.10;49.30
48575;DHT22;34352;51.084;3.712;2022-10-16T00:23:07;14.00;50.20
48575;DHT22;34352;51.084;3.712;2022-10-16T00:28:25;13.90;53.50
48575;DHT22;34352;51.084;3.712;2022-10-16T00:30:51;14.10;50.10
48575;DHT22;34352;51.084;3.712;2022-10-16T00:33:17;14.00;49.50
48575;DHT22;34352;51.084;3.712;2022-10-16T00:35:42;14.00;50.90
48575;DHT22;34352;51.084;3.712;2022-10-16T00:38:09;14.00;50.50
48575;DHT22;34352;51.084;3.712;2022-10-16T00:40:34;14.00;48.80
48575;DHT22;34352;51.084;3.712;2022-10-16T00:43:00;14.10;49.80
48575;DHT22;34352;51.084;3.712;2022-10-16T00:45:28;13.90;51.90
48575;DHT22;34352;51.084;3.712;2022-10-16T00:47:55;13.90;53.70
48575;DHT22;34352;51.084;3.712;2022-10-16T00:50:28;13.80;56.30
48575;DHT22;34352;51.084;3.712;2022-10-16T00:52:56;13.70;58.40
48575;DHT22;34352;51.084;3.712;2022-10-16T00:55:21;13.80;59.10
48575;DHT22;34352;51.084;3.712;2022-10-16T00:57:49;13.60;61.00
48575;DHT22;34352;51.084;3.712;2022-10-16T01:00:19;13.60;63.40
48575;DHT22;34352;51.084;3.712;2022-10-16T01:02:52;13.60;63.60
48575;DHT22;34352;51.084;3.712;2022-10-16T01:05:21;14.40;62.20
48575;DHT22;34352;51.084;3.712;2022-10-16T01:07:57;13.70;61.40
48575;DHT22;34352;51.084;3.712;2022-10-16T01:10:38;13.70;62.40
48575;DHT22;34352;51.084;3.712;2022-10-16T01:13:06;13.80;63.10
48575;DHT22;34352;51.084;3.712;2022-10-16T01:15:47;13.70;64.10
48575;DHT22;34352;51.084;3.712;2022-10-16T01:20:57;13.60;66.60
48575;DHT22;34352;51.084;3.712;2022-10-16T01:28:36;13.70;63.50
48575;DHT22;34352;51.084;3.712;2022-10-16T01:31:04;13.70;64.70
48575;DHT22;34352;51.084;3.712;2022-10-16T01:33:42;13.60;66.80
48575;DHT22;34352;51.084;3.712;2022-10-16T01:36:47;13.50;68.50
48575;DHT22;34352;51.084;3.712;2022-10-16T01:39:20;13.50;68.60
48575;DHT22;34352;51.084;3.712;2022-10-16T01:41:55;13.50;69.10
48575;DHT22;34352;51.084;3.712;2022-10-16T01:44:26;13.50;68.80
48575;DHT22;34352;51.084;3.712;2022-10-16T01:46:54;13.70;68.00
48575;DHT22;34352;51.084;3.712;2022-10-16T01:49:23;13.50;69.00
48575;DHT22;34352;51.084;3.712;2022-10-16T01:51:57;13.50;71.50
48575;DHT22;34352;51.084;3.712;2022-10-16T01:54:27;13.50;71.40
48575;DHT22;34352;51.084;3.712;2022-10-16T01:56:56;13.40;70.80
48575;DHT22;34352;51.084;3.712;2022-10-16T01:59:25;13.50;70.80
48575;DHT22;34352;51.084;3.712;2022-10-16T02:01:58;13.40;72.30
48575;DHT22;34352;51.084;3.712;2022-10-16T02:04:31;13.50;73.30
48575;DHT22;34352;51.084;3.712;2022-10-16T02:06:59;13.50;71.30
48575;DHT22;34352;51.084;3.712;2022-10-16T02:09:25;13.50;70.50
48575;DHT22;34352;51.084;3.712;2022-10-16T02:11:53;13.60;68.80
48575;DHT22;34352;51.084;3.712;2022-10-16T02:14:21;13.60;69.20
48575;DHT22;34352;51.084;3.712;2022-10-16T02:16:50;13.60;68.70
48575;DHT22;34352;51.084;3.712;2022-10-16T02:19:17;13.90;68.80
48575;DHT22;34352;51.084;3.712;2022-10-16T02:22:12;13.60;67.20
48575;DHT22;34352;51.084;3.712;2022-10-16T02:27:34;13.60;65.60
48575;DHT22;34352;51.084;3.712;2022-10-16T02:30:17;13.70;64.30
48575;DHT22;34352;51.084;3.712;2022-10-16T02:32:47;13.60;64.60
48575;DHT22;34352;51.084;3.712;2022-10-16T02:35:15;13.60;66.20
48575;DHT22;34352;51.084;3.712;2022-10-16T02:37:44;13.50;68.40
48575;DHT22;34352;51.084;3.712;2022-10-16T02:40:11;13.60;66.80
48575;DHT22;34352;51.084;3.712;2022-10-16T02:42:38;13.70;65.60
48575;DHT22;34352;51.084;3.712;2022-10-16T02:45:08;13.70;63.30
48575;DHT22;34352;51.084;3.712;2022-10-16T02:47:34;13.60;63.50
48575;DHT22;34352;51.084;3.712;2022-10-16T02:50:00;13.60;65.10
48575;DHT22;34352;51.084;3.712;2022-10-16T02:52:25;13.60;65.60
48575;DHT22;34352;51.084;3.712;2022-10-16T02:54:51;13.60;65.90
48575;DHT22;34352;51.084;3.712;2022-10-16T02:57:17;13.60;66.50
48575;DHT22;34352;51.084;3.712;2022-10-16T02:59:44;13.50;67.20
48575;DHT22;34352;51.084;3.712;2022-10-16T03:02:10;13.50;67.60
48575;DHT22;34352;51.084;3.712;2022-10-16T03:04:36;13.50;67.50
48575;DHT22;34352;51.084;3.712;2022-10-16T03:07:02;13.50;66.50
48575;DHT22;34352;51.084;3.712;2022-10-16T03:09:27;13.60;64.70
48575;DHT22;34352;51.084;3.712;2022-10-16T03:11:53;13.60;63.80
48575;DHT22;34352;51.084;3.712;2022-10-16T03:14:19;13.50;64.20
48575;DHT22;34352;51.084;3.712;2022-10-16T03:16:45;13.50;65.90
48575;DHT22;34352;51.084;3.712;2022-10-16T03:19:10;13.40;67.90
48575;DHT22;34352;51.084;3.712;2022-10-16T03:21:36;13.40;68.20
48575;DHT22;34352;51.084;3.712;2022-10-16T03:24:03;13.30;68.50
48575;DHT22;34352;51.084;3.712;2022-10-16T03:26:29;13.40;69.20
48575;DHT22;34352;51.084;3.712;2022-10-16T03:28:55;13.30;69.10
48575;DHT22;34352;51.084;3.712;2022-10-16T03:31:21;13.30;69.80
48575;DHT22;34352;51.084;3.712;2022-10-16T03:33:47;13.20;71.60
48575;DHT22;34352;51.084;3.712;2022-10-16T03:36:14;13.30;70.20
48575;DHT22;34352;51.084;3.712;2022-10-16T03:38:41;13.50;70.30
48575;DHT22;34352;51.084;3.712;2022-10-16T03:41:07;13.40;68.40
48575;DHT22;34352;51.084;3.712;2022-10-16T03:43:33;13.40;66.90
48575;DHT22;34352;51.084;3.712;2022-10-16T03:45:58;13.30;67.90
48575;DHT22;34352;51.084;3.712;2022-10-16T03:48:24;13.30;68.70
48575;DHT22;34352;51.084;3.712;2022-10-16T03:50:50;13.30;67.90
48575;DHT22;34352;51.084;3.712;2022-10-16T03:53:17;14.00;69.60
48575;DHT22;34352;51.084;3.712;2022-10-16T03:55:45;13.20;69.50
48575;DHT22;34352;51.084;3.712;2022-10-16T03:58:12;13.30;69.20
48575;DHT22;34352;51.084;3.712;2022-10-16T04:00:44;13.40;67.00
48575;DHT22;34352;51.084;3.712;2022-10-16T04:03:10;13.20;69.20
48575;DHT22;34352;51.084;3.712;2022-10-16T04:05:36;13.10;68.90
48575;DHT22;34352;51.084;3.712;2022-10-16T04:08:02;13.20;69.20
48575;DHT22;34352;51.084;3.712;2022-10-16T04:10:28;13.20;69.00
48575;DHT22;34352;51.084;3.712;2022-10-16T04:12:55;13.20;69.60
48575;DHT22;34352;51.084;3.712;2022-10-16T04:15:22;13.00;72.40
48575;DHT22;34352;51.084;3.712;2022-10-16T04:17:48;13.10;71.70
48575;DHT22;34352;51.084;3.712;2022-10-16T04:20:14;13.10;70.30
48575;DHT22;34352;51.084;3.712;2022-10-16T04:22:39;13.10;70.10
48575;DHT22;34352;51.084;3.712;2022-10-16T04:25:06;13.10;71.30
48575;DHT22;34352;51.084;3.712;2022-10-16T04:27:31;13.10;71.60
48575;DHT22;34352;51.084;3.712;2022-10-16T04:29:59;13.10;71.70
48575;DHT22;34352;51.084;3.712;2022-10-16T04:32:25;13.00;71.90
48575;DHT22;34352;51.084;3.712;2022-10-16T04:34:52;13.10;72.00
48575;DHT22;34352;51.084;3.712;2022-10-16T04:37:18;13.30;71.20
48575;DHT22;34352;51.084;3.712;2022-10-16T04:39:43;13.40;72.90
48575;DHT22;34352;51.084;3.712;2022-10-16T04:42:11;13.00;74.00
48575;DHT22;34352;51.084;3.712;2022-10-16T04:44:36;13.10;72.60
48575;DHT22;34352;51.084;3.712;2022-10-16T04:47:02;13.10;73.50
48575;DHT22;34352;51.084;3.712;2022-10-16T04:49:29;13.10;73.70
48575;DHT22;34352;51.084;3.712;2022-10-16T04:51:55;13.00;73.60
48575;DHT22;34352;51.084;3.712;2022-10-16T04:54:20;13.00;72.60
48575;DHT22;34352;51.084;3.712;2022-10-16T04:56:46;13.00;72.30
48575;DHT22;34352;51.084;3.712;2022-10-16T04:59:17;13.00;72.50
48575;DHT22;34352;51.084;3.712;2022-10-16T05:01:43;13.70;73.10
48575;DHT22;34352;51.084;3.712;2022-10-16T05:04:09;13.10;71.30
48575;DHT22;34352;51.084;3.712;2022-10-16T05:06:35;13.70;69.50
48575;DHT22;34352;51.084;3.712;2022-10-16T05:09:01;13.10;68.30
48575;DHT22;34352;51.084;3.712;2022-10-16T05:11:27;13.30;68.70
48575;DHT22;34352;51.084;3.712;2022-10-16T05:13:52;13.10;69.70
48575;DHT22;34352;51.084;3.712;2022-10-16T05:16:18;13.20;69.40
48575;DHT22;34352;51.084;3.712;2022-10-16T05:18:44;13.20;69.40
48575;DHT22;34352;51.084;3.712;2022-10-16T05:21:09;13.30;68.40
48575;DHT22;34352;51.084;3.712;2022-10-16T05:23:35;13.40;68.40
48575;DHT22;34352;51.084;3.712;2022-10-16T05:26:01;13.30;69.20
48575;DHT22;34352;51.084;3.712;2022-10-16T05:28:28;13.30;69.10
48575;DHT22;34352;51.084;3.712;2022-10-16T05:30:54;13.40;66.80
48575;DHT22;34352;51.084;3.712;2022-10-16T05:33:21;13.50;65.10
48575;DHT22;34352;51.084;3.712;2022-10-16T05:35:47;13.40;64.60
48575;DHT22;34352;51.084;3.712;2022-10-16T05:38:12;13.40;65.40
48575;DHT22;34352;51.084;3.712;2022-10-16T05:40:38;13.50;63.90
48575;DHT22;34352;51.084;3.712;2022-10-16T05:43:05;13.50;64.20
48575;DHT22;34352;51.084;3.712;2022-10-16T05:45:30;13.50;62.70
48575;DHT22;34352;51.084;3.712;2022-10-16T05:47:57;13.60;62.00
48575;DHT22;34352;51.084;3.712;2022-10-16T05:50:23;13.50;62.50
48575;DHT22;34352;51.084;3.712;2022-10-16T05:52:49;13.70;64.90
48575;DHT22;34352;51.084;3.712;2022-10-16T05:55:15;13.40;62.50
48575;DHT22;34352;51.084;3.712;2022-10-16T05:57:41;13.30;63.60
48575;DHT22;34352;51.084;3.712;2022-10-16T06:00:07;13.30;63.70
48575;DHT22;34352;51.084;3.712;2022-10-16T06:02:35;13.20;64.50
48575;DHT22;34352;51.084;3.712;2022-10-16T06:05:01;13.20;65.60
48575;DHT22;34352;51.084;3.712;2022-10-16T06:07:26;13.20;66.90
48575;DHT22;34352;51.084;3.712;2022-10-16T06:09:53;13.20;68.40
48575;DHT22;34352;51.084;3.712;2022-10-16T06:12:19;13.10;70.10
48575;DHT22;34352;51.084;3.712;2022-10-16T06:14:45;13.20;68.70
48575;DHT22;34352;51.084;3.712;2022-10-16T06:17:15;13.30;68.50
48575;DHT22;34352;51.084;3.712;2022-10-16T06:19:41;13.40;68.40
48575;DHT22;34352;51.084;3.712;2022-10-16T06:22:06;13.10;68.70
48575;DHT22;34352;51.084;3.712;2022-10-16T06:24:32;13.20;70.50
48575;DHT22;34352;51.084;3.712;2022-10-16T06:26:58;13.20;70.00
48575;DHT22;34352;51.084;3.712;2022-10-16T06:29:23;13.30;68.90
48575;DHT22;34352;51.084;3.712;2022-10-16T06:31:49;13.20;69.60
48575;DHT22;34352;51.084;3.712;2022-10-16T06:34:15;13.30;69.80
48575;DHT22;34352;51.084;3.712;2022-10-16T06:36:41;13.30;68.80
48575;DHT22;34352;51.084;3.712;2022-10-16T06:39:07;13.50;68.00
48575;DHT22;34352;51.084;3.712;2022-10-16T06:41:34;13.40;67.00
48575;DHT22;34352;51.084;3.712;2022-10-16T06:44:00;13.40;66.70
48575;DHT22;34352;51.084;3.712;2022-10-16T06:46:26;13.50;66.00
48575;DHT22;34352;51.084;3.712;2022-10-16T06:48:55;13.50;64.10
48575;DHT22;34352;51.084;3.712;2022-10-16T06:51:22;13.60;62.90
48575;DHT22;34352;51.084;3.712;2022-10-16T06:53:50;13.60;62.90
48575;DHT22;34352;51.084;3.712;2022-10-16T06:56:22;13.60;63.10
48575;DHT22;34352;51.084;3.712;2022-10-16T06:58:52;13.60;61.80
48575;DHT22;34352;51.084;3.712;2022-10-16T07:01:22;13.70;59.90
48575;DHT22;34352;51.084;3.712;2022-10-16T07:03:48;13.80;59.50
48575;DHT22;34352;51.084;3.712;2022-10-16T07:06:16;14.00;56.80
48575;DHT22;34352;51.084;3.712;2022-10-16T07:08:44;14.10;53.40
48575;DHT22;34352;51.084;3.712;2022-10-16T07:11:12;14.00;54.30
48575;DHT22;34352;51.084;3.712;2022-10-16T07:13:40;14.00;55.00
48575;DHT22;34352;51.084;3.712;2022-10-16T07:16:11;14.10;53.10
48575;DHT22;34352;51.084;3.712;2022-10-16T07:18:37;14.20;51.90
48575;DHT22;34352;51.084;3.712;2022-10-16T07:21:12;14.20;49.00
48575;DHT22;34352;51.084;3.712;2022-10-16T07:23:38;14.20;48.40
48575;DHT22;34352;51.084;3.712;2022-10-16T07:26:06;14.30;47.50
48575;DHT22;34352;51.084;3.712;2022-10-16T07:28:33;14.30;46.10
48575;DHT22;34352;51.084;3.712;2022-10-16T07:31:03;14.30;47.20
48575;DHT22;34352;51.084;3.712;2022-10-16T07:33:30;14.30;47.00
48575;DHT22;34352;51.084;3.712;2022-10-16T07:35:56;14.70;48.00
48575;DHT22;34352;51.084;3.712;2022-10-16T07:38:22;15.70;26.10
48575;DHT22;34352;51.084;3.712;2022-10-16T07:40:55;16.70;1.00
48575;DHT22;34352;51.084;3.712;2022-10-16T07:43:20;17.50;1.00
48575;DHT22;34352;51.084;3.712;2022-10-16T07:45:48;18.20;1.00
48575;DHT22;34352;51.084;3.712;2022-10-16T07:48:14;18.90;1.00
48575;DHT22;34352;51.084;3.712;2022-10-16T07:50:40;19.30;99.90
48575;DHT22;34352;51.084;3.712;2022-10-16T07:53:06;19.60;99.90
48575;DHT22;34352;51.084;3.712;2022-10-16T07:55:32;20.20;99.90
48575;DHT22;34352;51.084;3.712;2022-10-16T07:57:58;20.80;99.90
48575;DHT22;34352;51.084;3.712;2022-10-16T08:00:23;21.00;99.90
48575;DHT22;34352;51.084;3.712;2022-10-16T08:02:49;20.80;99.90
48575;DHT22;34352;51.084;3.712;2022-10-16T08:05:15;21.20;99.90
48575;DHT22;34352;51.084;3.712;2022-10-16T08:07:41;21.80;99.90
48575;DHT22;34352;51.084;3.712;2022-10-16T08:10:09;22.90;99.90
48575;DHT22;34352;51.084;3.712;2022-10-16T08:12:37;23.10;99.90
48575;DHT22;34352;51.084;3.712;2022-10-16T08:15:03;23.40;99.90
48575;DHT22;34352;51.084;3.712;2022-10-16T08:17:29;23.30;99.90
48575;DHT22;34352;51.084;3.712;2022-10-16T08:19:54;23.40;99.90
48575;DHT22;34352;51.084;3.712;2022-10-16T08:22:20;23.40;99.90
48575;DHT22;34352;51.084;3.712;2022-10-16T08:24:45;23.20;99.90
48575;DHT22;34352;51.084;3.712;2022-10-16T08:27:11;23.00;99.90
48575;DHT22;34352;51.084;3.712;2022-10-16T08:29:36;22.80;99.90
48575;DHT22;34352;51.084;3.712;2022-10-16T08:32:04;23.50;99.90
48575;DHT22;34352;51.084;3.712;2022-10-16T08:34:30;23.80;99.90
48575;DHT22;34352;51.084;3.712;2022-10-16T08:36:55;24.50;99.90
48575;DHT22;34352;51.084;3.712;2022-10-16T08:39:21;25.30;99.90
48575;DHT22;34352;51.084;3.712;2022-10-16T08:41:55;25.70;99.90
48575;DHT22;34352;51.084;3.712;2022-10-16T08:47:41;24.20;99.90
48575;DHT22;34352;51.084;3.712;2022-10-16T08:50:14;23.10;99.90
48575;DHT22;34352;51.084;3.712;2022-10-16T08:52:45;22.40;99.90
48575;DHT22;34352;51.084;3.712;2022-10-16T08:55:43;21.50;99.90
48575;DHT22;34352;51.084;3.712;2022-10-16T08:58:16;21.00;99.90
48575;DHT22;34352;51.084;3.712;2022-10-16T09:00:42;20.60;99.90
48575;DHT22;34352;51.084;3.712;2022-10-16T09:09:18;23.10;99.90
48575;DHT22;34352;51.084;3.712;2022-10-16T09:12:01;23.90;99.90
48575;DHT22;34352;51.084;3.712;2022-10-16T09:22:33;26.60;99.90
48575;DHT22;34352;51.084;3.712;2022-10-16T09:25:11;26.20;1.00
48575;DHT22;34352;51.084;3.712;2022-10-16T09:27:38;26.20;1.00
48575;DHT22;34352;51.084;3.712;2022-10-16T09:30:13;26.60;1.00
48575;DHT22;34352;51.084;3.712;2022-10-16T09:32:41;26.90;1.00
48575;DHT22;34352;51.084;3.712;2022-10-16T09:35:20;26.30;1.00
48575;DHT22;34352;51.084;3.712;2022-10-16T09:37:49;26.40;99.90
48575;DHT22;34352;51.084;3.712;2022-10-16T09:40:36;26.40;1.00
48575;DHT22;34352;51.084;3.712;2022-10-16T09:43:12;26.50;1.00
48575;DHT22;34352;51.084;3.712;2022-10-16T09:45:39;27.70;1.00
48575;DHT22;34352;51.084;3.712;2022-10-16T09:48:12;28.30;1.00
48575;DHT22;34352;51.084;3.712;2022-10-16T09:50:38;28.30;1.00
48575;DHT22;34352;51.084;3.712;2022-10-16T09:53:14;28.40;1.00
48575;DHT22;34352;51.084;3.712;2022-10-16T09:55:50;28.80;1.00
48575;DHT22;34352;51.084;3.712;2022-10-16T09:58:16;28.40;1.00
48575;DHT22;34352;51.084;3.712;2022-10-16T10:00:49;27.80;1.00
48575;DHT22;34352;51.084;3.712;2022-10-16T10:03:35;27.40;99.90
48575;DHT22;34352;51.084;3.712;2022-10-16T10:06:17;28.30;99.90
48575;DHT22;34352;51.084;3.712;2022-10-16T10:11:51;29.20;1.00
48575;DHT22;34352;51.084;3.712;2022-10-16T10:14:36;29.00;1.00
48575;DHT22;34352;51.084;3.712;2022-10-16T10:19:48;25.60;1.00
48575;DHT22;34352;51.084;3.712;2022-10-16T10:22:30;24.70;1.00
48575;DHT22;34352;51.084;3.712;2022-10-16T10:27:44;24.90;1.00
48575;DHT22;34352;51.084;3.712;2022-10-16T10:32:55;28.20;1.00
48575;DHT22;34352;51.084;3.712;2022-10-16T10:46:48;24.70;1.00
48575;DHT22;34352;51.084;3.712;2022-10-16T11:06:40;24.30;1.00
48575;DHT22;34352;51.084;3.712;2022-10-16T11:09:19;24.30;1.00
48575;DHT22;34352;51.084;3.712;2022-10-16T11:12:17;24.00;1.00
48575;DHT22;34352;51.084;3.712;2022-10-16T11:14:56;23.50;1.00
48575;DHT22;34352;51.084;3.712;2022-10-16T11:17:31;23.10;1.00
48575;DHT22;34352;51.084;3.712;2022-10-16T11:22:56;22.60;99.90
48575;DHT22;34352;51.084;3.712;2022-10-16T11:28:23;23.50;99.90
48575;DHT22;34352;51.084;3.712;2022-10-16T11:36:53;26.70;99.90
48575;DHT22;34352;51.084;3.712;2022-10-16T11:39:21;28.10;1.00
48575;DHT22;34352;51.084;3.712;2022-10-16T11:42:07;27.50;1.00
48575;DHT22;34352;51.084;3.712;2022-10-16T11:47:26;25.70;1.00
48575;DHT22;34352;51.084;3.712;2022-10-16T11:50:02;25.00;1.00
48575;DHT22;34352;51.084;3.712;2022-10-16T11:52:45;24.70;1.00
48575;DHT22;34352;51.084;3.712;2022-10-16T11:55:20;24.20;1.00
48575;DHT22;34352;51.084;3.712;2022-10-16T11:58:00;23.90;1.00
48575;DHT22;34352;51.084;3.712;2022-10-16T12:00:38;25.20;1.00
48575;DHT22;34352;51.084;3.712;2022-10-16T12:06:14;28.60;1.00
48575;DHT22;34352;51.084;3.712;2022-10-16T12:08:37;28.80;1.00
48575;DHT22;34352;51.084;3.712;2022-10-16T12:19:21;29.90;1.00
48575;DHT22;34352;51.084;3.712;2022-10-16T12:21:48;30.30;1.00
48575;DHT22;34352;51.084;3.712;2022-10-16T12:24:38;29.90;1.00
48575;DHT22;34352;51.084;3.712;2022-10-16T12:27:30;29.40;1.00
48575;DHT22;34352;51.084;3.712;2022-10-16T12:30:02;29.20;1.00
48575;DHT22;34352;51.084;3.712;2022-10-16T12:32:36;28.50;1.00
48575;DHT22;34352;51.084;3.712;2022-10-16T12:35:05;28.00;1.00
48575;DHT22;34352;51.084;3.712;2022-10-16T12:37:34;27.70;1.00
48575;DHT22;34352;51.084;3.712;2022-10-16T12:40:15;26.90;1.00
48575;DHT22;34352;51.084;3.712;2022-10-16T12:42:42;26.90;1.00
48575;DHT22;34352;51.084;3.712;2022-10-16T12:45:38;26.20;1.00
48575;DHT22;34352;51.084;3.712;2022-10-16T12:48:21;26.60;1.00
48575;DHT22;34352;51.084;3.712;2022-10-16T12:50:49;27.80;1.00
48575;DHT22;34352;51.084;3.712;2022-10-16T12:53:25;28.60;1.00
48575;DHT22;34352;51.084;3.712;2022-10-16T13:19:29;26.00;1.00
48575;DHT22;34352;51.084;3.712;2022-10-16T13:27:37;24.20;1.00
48575;DHT22;34352;51.084;3.712;2022-10-16T13:30:17;23.60;1.00
48575;DHT22;34352;51.084;3.712;2022-10-16T13:32:48;23.30;1.00
48575;DHT22;34352;51.084;3.712;2022-10-16T13:35:24;23.30;1.00
48575;DHT22;34352;51.084;3.712;2022-10-16T13:37:51;23.10;1.00
48575;DHT22;34352;51.084;3.712;2022-10-16T13:40:22;23.20;1.00
48575;DHT22;34352;51.084;3.712;2022-10-16T13:42:51;23.00;1.00
48575;DHT22;34352;51.084;3.712;2022-10-16T13:45:23;23.10;1.00
48575;DHT22;34352;51.084;3.712;2022-10-16T13:48:04;23.20;1.00
48575;DHT22;34352;51.084;3.712;2022-10-16T13:50:30;23.20;1.00
48575;DHT22;34352;51.084;3.712;2022-10-16T13:53:06;23.30;1.00
48575;DHT22;34352;51.084;3.712;2022-10-16T13:55:32;23.20;99.90
48575;DHT22;34352;51.084;3.712;2022-10-16T13:58:14;23.00;99.90
48575;DHT22;34352;51.084;3.712;2022-10-16T14:00:52;22.80;99.90
48575;DHT22;34352;51.084;3.712;2022-10-16T14:03:19;22.80;99.90
48575;DHT22;34352;51.084;3.712;2022-10-16T14:05:58;22.30;99.90
48575;DHT22;34352;51.084;3.712;2022-10-16T14:08:25;22.10;99.90
48575;DHT22;34352;51.084;3.712;2022-10-16T14:10:57;21.90;99.90
48575;DHT22;34352;51.084;3.712;2022-10-16T14:13:44;21.30;99.90
48575;DHT22;34352;51.084;3.712;2022-10-16T14:16:18;21.50;99.90
48575;DHT22;34352;51.084;3.712;2022-10-16T14:19:05;21.30;99.90
48575;DHT22;34352;51.084;3.712;2022-10-16T14:21:32;21.30;99.90
48575;DHT22;34352;51.084;3.712;2022-10-16T14:23:59;21.10;99.90
48575;DHT22;34352;51.084;3.712;2022-10-16T14:26:27;20.60;99.90
48575;DHT22;34352;51.084;3.712;2022-10-16T14:29:14;20.70;99.90
48575;DHT22;34352;51.084;3.712;2022-10-16T14:31:41;20.90;99.90
48575;DHT22;34352;51.084;3.712;2022-10-16T14:34:52;20.90;99.90
48575;DHT22;34352;51.084;3.712;2022-10-16T14:37:26;21.10;99.90
48575;DHT22;34352;51.084;3.712;2022-10-16T14:39:53;21.00;99.90
48575;DHT22;34352;51.084;3.712;2022-10-16T14:42:21;20.70;99.90
48575;DHT22;34352;51.084;3.712;2022-10-16T14:44:50;20.50;99.90
48575;DHT22;34352;51.084;3.712;2022-10-16T14:47:22;20.50;99.90
48575;DHT22;34352;51.084;3.712;2022-10-16T14:49:52;20.40;99.90
48575;DHT22;34352;51.084;3.712;2022-10-16T14:52:20;20.30;99.90
48575;DHT22;34352;51.084;3.712;2022-10-16T14:54:50;20.20;99.90
48575;DHT22;34352;51.084;3.712;2022-10-16T14:57:26;20.30;99.90
48575;DHT22;34352;51.084;3.712;2022-10-16T14:59:53;20.20;99.90
48575;DHT22;34352;51.084;3.712;2022-10-16T15:04:49;19.80;99.90
48575;DHT22;34352;51.084;3.712;2022-10-16T15:07:15;19.70;99.90
48575;DHT22;34352;51.084;3.712;2022-10-16T15:09:40;19.80;99.90
48575;DHT22;34352;51.084;3.712;2022-10-16T15:12:06;19.90;99.90
48575;DHT22;34352;51.084;3.712;2022-10-16T15:14:32;19.90;99.90
48575;DHT22;34352;51.084;3.712;2022-10-16T15:16:57;19.70;99.90
48575;DHT22;34352;51.084;3.712;2022-10-16T15:19:23;19.60;99.90
48575;DHT22;34352;51.084;3.712;2022-10-16T15:21:49;19.60;99.90
48575;DHT22;34352;51.084;3.712;2022-10-16T15:24:15;19.70;99.90
48575;DHT22;34352;51.084;3.712;2022-10-16T15:26:41;19.80;99.90
48575;DHT22;34352;51.084;3.712;2022-10-16T15:29:07;20.10;99.90
48575;DHT22;34352;51.084;3.712;2022-10-16T15:31:34;20.20;99.90
48575;DHT22;34352;51.084;3.712;2022-10-16T15:33:59;20.10;99.90
48575;DHT22;34352;51.084;3.712;2022-10-16T15:36:33;20.00;99.90
48575;DHT22;34352;51.084;3.712;2022-10-16T15:39:05;19.80;99.90
48575;DHT22;34352;51.084;3.712;2022-10-16T15:41:32;19.70;99.90
48575;DHT22;34352;51.084;3.712;2022-10-16T15:43:58;19.80;99.90
48575;DHT22;34352;51.084;3.712;2022-10-16T15:46:24;19.80;99.90
48575;DHT22;34352;51.084;3.712;2022-10-16T15:48:57;19.80;99.90
48575;DHT22;34352;51.084;3.712;2022-10-16T15:51:24;19.70;99.90
48575;DHT22;34352;51.084;3.712;2022-10-16T15:53:49;19.70;99.90
48575;DHT22;34352;51.084;3.712;2022-10-16T15:56:16;19.80;99.90
48575;DHT22;34352;51.084;3.712;2022-10-16T15:58:43;19.80;99.90
48575;DHT22;34352;51.084;3.712;2022-10-16T16:01:09;19.50;99.90
48575;DHT22;34352;51.084;3.712;2022-10-16T16:03:38;19.50;99.90
48575;DHT22;34352;51.084;3.712;2022-10-16T16:06:11;19.60;99.90
48575;DHT22;34352;51.084;3.712;2022-10-16T16:08:38;19.70;99.90
48575;DHT22;34352;51.084;3.712;2022-10-16T16:11:08;19.70;99.90
48575;DHT22;34352;51.084;3.712;2022-10-16T16:13:35;19.50;99.90
48575;DHT22;34352;51.084;3.712;2022-10-16T16:16:06;19.60;99.90
48575;DHT22;34352;51.084;3.712;2022-10-16T16:18:33;19.30;99.90
48575;DHT22;34352;51.084;3.712;2022-10-16T16:20:58;19.40;99.90
48575;DHT22;34352;51.084;3.712;2022-10-16T16:23:24;19.50;99.90
48575;DHT22;34352;51.084;3.712;2022-10-16T16:26:07;19.60;99.90
48575;DHT22;34352;51.084;3.712;2022-10-16T16:28:35;19.70;99.90
48575;DHT22;34352;51.084;3.712;2022-10-16T16:31:01;19.70;99.90
48575;DHT22;34352;51.084;3.712;2022-10-16T16:33:27;19.80;99.90
48575;DHT22;34352;51.084;3.712;2022-10-16T16:35:59;19.80;99.90
48575;DHT22;34352;51.084;3.712;2022-10-16T16:38:26;19.70;99.90
48575;DHT22;34352;51.084;3.712;2022-10-16T16:40:52;19.60;99.90
48575;DHT22;34352;51.084;3.712;2022-10-16T16:43:36;19.70;99.90
48575;DHT22;34352;51.084;3.712;2022-10-16T16:46:02;19.70;99.90
48575;DHT22;34352;51.084;3.712;2022-10-16T16:48:28;19.70;99.90
48575;DHT22;34352;51.084;3.712;2022-10-16T16:50:54;19.60;99.90
48575;DHT22;34352;51.084;3.712;2022-10-16T16:53:20;19.60;99.90
48575;DHT22;34352;51.084;3.712;2022-10-16T16:55:47;19.50;99.90
48575;DHT22;34352;51.084;3.712;2022-10-16T16:58:12;19.60;99.90
48575;DHT22;34352;51.084;3.712;2022-10-16T17:00:45;19.50;99.90
48575;DHT22;34352;51.084;3.712;2022-10-16T17:03:11;19.50;99.90
48575;DHT22;34352;51.084;3.712;2022-10-16T17:05:38;19.50;99.90
48575;DHT22;34352;51.084;3.712;2022-10-16T17:08:06;19.50;99.90
48575;DHT22;34352;51.084;3.712;2022-10-16T17:10:32;19.60;99.90
48575;DHT22;34352;51.084;3.712;2022-10-16T17:12:58;19.60;99.90
48575;DHT22;34352;51.084;3.712;2022-10-16T17:15:24;19.40;99.90
48575;DHT22;34352;51.084;3.712;2022-10-16T17:17:49;19.50;99.90
48575;DHT22;34352;51.084;3.712;2022-10-16T17:20:15;19.40;99.90
48575;DHT22;34352;51.084;3.712;2022-10-16T17:22:46;19.30;99.90
48575;DHT22;34352;51.084;3.712;2022-10-16T17:25:13;19.30;99.90
48575;DHT22;34352;51.084;3.712;2022-10-16T17:27:39;19.50;99.90
48575;DHT22;34352;51.084;3.712;2022-10-16T17:30:05;19.20;99.90
48575;DHT22;34352;51.084;3.712;2022-10-16T17:32:30;19.00;99.90
48575;DHT22;34352;51.084;3.712;2022-10-16T17:34:56;18.80;99.90
48575;DHT22;34352;51.084;3.712;2022-10-16T17:37:22;18.70;1.00
48575;DHT22;34352;51.084;3.712;2022-10-16T17:39:50;18.50;1.00
48575;DHT22;34352;51.084;3.712;2022-10-16T17:42:16;18.50;1.00
48575;DHT22;34352;51.084;3.712;2022-10-16T17:44:42;18.50;1.00
48575;DHT22;34352;51.084;3.712;2022-10-16T17:47:08;18.60;1.00
48575;DHT22;34352;51.084;3.712;2022-10-16T17:49:33;18.70;1.00
48575;DHT22;34352;51.084;3.712;2022-10-16T17:51:59;18.70;1.00
48575;DHT22;34352;51.084;3.712;2022-10-16T17:54:27;18.60;1.00
48575;DHT22;34352;51.084;3.712;2022-10-16T17:56:52;18.70;1.00